Data for 05/20/2015

Time Sea-Level Adjusted Pressure Absolute Pressure Temperature Relative Humidity Dew Point   
(mb) (inHg) (mb) (inHg) (C) (F) (%) (C) (F)
00:05 1022 30.18 851 25.13 6 42.8 70 0.9 33.6
00:10 1022 30.18 851 25.13 6 42.8 70 0.9 33.7
00:15 1022 30.18 851 25.13 5.9 42.7 69 0.8 33.4
00:20 1022 30.18 851 25.13 5.9 42.7 68 0.6 33.1
00:25 1022 30.18 851 25.13 5.9 42.6 68 0.6 33
00:30 1022 30.18 851 25.13 5.8 42.4 69 0.6 33.1
00:35 1022 30.18 851 25.13 5.7 42.2 70 0.6 33.1
00:40 1022 30.18 851 25.13 5.6 42 72 0.8 33.5
00:45 1022 30.18 851 25.13 5.4 41.8 72 0.8 33.4
00:50 1022 30.18 851 25.13 5.4 41.7 73 0.9 33.6
00:55 1022 30.18 851 25.13 5.3 41.5 74 1 33.8
01:00 1022 30.18 851 25.13 5.3 41.5 73 0.9 33.6
01:05 1022 30.18 851 25.13 5.3 41.5 75 1.1 34.1
01:10 1022 30.18 851 25.13 5.1 41.2 75 1.1 34
01:15 1022 30.18 851 25.13 5.1 41.3 74 0.8 33.5
01:20 1022 30.18 851 25.13 5.2 41.4 74 0.9 33.7
01:25 1022 30.18 851 25.13 5.2 41.4 74 1 33.8
01:30 1022 30.18 851 25.13 5.2 41.4 74 1 33.7
01:35 1022 30.18 851 25.13 5.2 41.4 74 0.9 33.6
01:40 1022 30.18 851 25.13 5.2 41.4 75 1.1 34
01:45 1022 30.18 851 25.13 5.2 41.3 74 1 33.8
01:50 1022 30.18 851 25.13 5.2 41.4 74 0.9 33.7
01:55 1022 30.18 851 25.13 5.2 41.4 74 0.9 33.7
02:00 1022 30.18 851 25.13 5.2 41.4 74 1.1 33.9
02:05 1022 30.18 851 25.13 5.2 41.3 75 1 33.9
02:10 1022 30.18 851 25.13 5.2 41.3 73 0.7 33.3
02:15 1022 30.18 851 25.13 5.3 41.5 74 1.1 33.9
02:20 1022 30.18 851 25.13 5.2 41.4 74 1 33.8
02:25 1022 30.18 851 25.13 5.3 41.5 74 1 33.8
02:30 1022 30.18 851 25.13 5.3 41.5 73 0.9 33.5
02:35 1022 30.18 851 25.13 5.3 41.5 73 0.9 33.6
02:40 1022 30.18 851 25.13 5.3 41.6 72 0.6 33.1
02:45 1022 30.18 851 25.13 5.3 41.6 72 0.8 33.4
02:50 1022 30.18 851 25.13 5.3 41.5 72 0.7 33.2
02:55 1022 30.18 851 25.13 5.3 41.6 70 0.3 32.5
03:00 1022 30.18 851 25.13 5.4 41.7 71 0.5 32.8
03:05 1022 30.18 851 25.13 5.3 41.6 72 0.6 33.1
03:10 1022 30.18 851 25.13 5.3 41.5 72 0.6 33.1
03:15 1022 30.18 851 25.13 5.3 41.5 72 0.5 33
03:20 1022 30.18 851 25.13 5.3 41.5 73 0.7 33.3
03:25 1022 30.18 851 25.13 5.2 41.4 72 0.6 33.1
03:30 1022 30.18 851 25.13 5.2 41.3 74 0.9 33.6
03:35 1022 30.18 851 25.13 5.1 41.2 73 0.7 33.3
03:40 1022 30.18 851 25.13 5.2 41.4 73 0.8 33.4
03:45 1022 30.18 851 25.13 5.2 41.4 72 0.6 33.1
03:50 1022 30.18 851 25.13 5.3 41.5 72 0.7 33.2
03:55 1022 30.18 851 25.13 5.2 41.4 72 0.7 33.2
04:00 1022 30.18 851 25.13 5.3 41.5 72 0.7 33.3
04:05 1022 30.18 851 25.13 5.3 41.5 73 0.8 33.4
04:10 1022 30.18 851 25.13 5.3 41.5 72 0.6 33.1
04:15 1022 30.18 851 25.13 5.4 41.6 72 0.8 33.4
04:20 1022 30.18 851 25.13 5.4 41.7 73 0.9 33.6
04:25 1022 30.18 851 25.13 5.3 41.6 72 0.8 33.4
04:30 1022 30.18 851 25.13 5.3 41.6 74 1 33.8
04:35 1022 30.18 851 25.13 5.2 41.4 74 1 33.8
04:40 1022 30.18 851 25.13 5.2 41.3 75 1.1 34
04:45 1022 30.18 851 25.13 5.1 41.2 75 1 33.8
04:50 1022 30.18 851 25.13 5.1 41.2 75 1.1 34
04:55 1022 30.18 851 25.13 5.1 41.1 74 0.9 33.5
05:00 1022 30.18 851 25.13 5.1 41.2 73 0.6 33.2
05:05 1022 30.18 851 25.13 5.2 41.3 72 0.5 32.8
05:10 1022 30.18 851 25.13 5.2 41.3 72 0.6 33.1
05:15 1022 30.18 851 25.13 5.1 41.2 73 0.6 33.1
05:20 1022 30.18 851 25.13 5.1 41.2 72 0.5 33
05:25 1022 30.18 851 25.13 5.2 41.4 72 0.6 33.1
05:30 1022 30.18 851 25.13 5.3 41.5 71 0.5 33
05:35 1022 30.18 851 25.13 5.3 41.5 72 0.6 33
05:40 1022 30.18 851 25.13 5.3 41.5 71 0.4 32.7
05:45 1022 30.18 851 25.13 5.3 41.6 72 0.7 33.3
05:50 1022 30.18 851 25.13 5.3 41.6 71 0.5 32.9
05:55 1022 30.18 851 25.13 5.4 41.7 71 0.5 32.8
06:00 1022 30.18 851 25.13 5.5 41.9 70 0.4 32.7
06:05 1022 30.18 851 25.13 5.7 42.2 68 0.2 32.3
06:10 1022 30.18 851 25.13 5.9 42.5 65 -0.2 31.6
06:15 1022 30.18 851 25.13 6 42.8 64 -0.3 31.4
06:20 1022 30.18 851 25.13 6.2 43.1 65 0.1 32.2
06:25 1022 30.18 851 25.13 6.2 43.1 61 -0.7 30.8
06:30 1022 30.18 851 25.13 6.3 43.3 62 -0.3 31.4
06:35 1022 30.18 851 25.13 6.2 43.2 62 -0.5 31.1
06:40 1022 30.18 851 25.13 6.2 43.1 62 -0.5 31.1
06:45 1022 30.18 851 25.13 6.2 43.1 61 -0.8 30.6
06:50 1022 30.18 851 25.13 5.8 42.5 62 -1 30.2
06:55 1022 30.18 851 25.13 5.7 42.3 62 -1 30.2
07:00 1022 30.18 851 25.13 5.5 42 65 -0.4 31.3
07:05 1022 30.18 851 25.13 5.6 42.2 63 -0.8 30.5
07:10 1022 30.18 851 25.13 5.8 42.5 63 -0.6 30.9
07:15 1022 30.18 851 25.13 6 42.8 63 -0.4 31.3
07:20 1022 30.18 851 25.13 6.2 43.2 62 -0.5 31
07:25 1022 30.18 851 25.13 6.3 43.3 61 -0.6 31
07:30 1022 30.18 851 25.13 6.3 43.3 62 -0.6 31
07:35 1022 30.18 851 25.13 6.2 43.2 62 -0.5 31
07:40 1022 30.18 851 25.13 6.2 43.2 61 -0.7 30.8
07:45 1022 30.18 851 25.13 6.3 43.3 61 -0.7 30.8
07:50 1022 30.18 851 25.13 6.3 43.3 63 -0.2 31.6
07:55 1022 30.18 851 25.13 6.5 43.6 61 -0.5 31.2
08:00 1022 30.18 851 25.13 6.4 43.4 63 -0 31.9
08:05 1022 30.18 851 25.13 6.4 43.5 63 -0.2 31.6
08:10 1022 30.18 851 25.13 6.5 43.7 61 -0.3 31.4
08:15 1022 30.18 852 25.16 6.6 43.9 61 -0.3 31.5
08:20 1022 30.18 852 25.16 6.6 43.9 62 -0.2 31.7
08:25 1022 30.18 852 25.16 6.8 44.3 61 -0.2 31.6
08:30 1022 30.18 852 25.16 7.1 44.7 61 0.1 32.2
08:35 1022 30.18 852 25.16 6.7 44.1 63 0.3 32.5
08:40 1022 30.18 852 25.16 6.9 44.4 61 -0 32
08:45 1022 30.18 852 25.16 6.8 44.3 62 0.1 32.1
08:50 1022 30.18 852 25.16 6.7 44.1 61 -0.2 31.6
08:55 1022 30.18 852 25.16 6.6 43.9 62 -0.1 31.8
09:00 1022 30.18 852 25.16 7.1 44.8 62 0.2 32.4
09:05 1022 30.18 852 25.16 7.4 45.2 61 0.4 32.7
09:10 1022 30.18 852 25.16 7.7 45.9 59 0.4 32.7
09:15 1022 30.18 851 25.13 7.5 45.5 61 0.5 32.9
09:20 1022 30.18 851 25.13 7.9 46.2 58 0.2 32.4
09:25 1022 30.18 851 25.13 7.9 46.2 58 0.2 32.3
09:30 1022 30.18 851 25.13 8.1 46.6 56 -0 32
09:35 1022 30.18 851 25.13 8 46.4 57 0.1 32.2
09:40 1022 30.18 851 25.13 8.2 46.8 57 0.3 32.6
09:45 1022 30.18 851 25.13 8.5 47.4 55 0.1 32.2
09:50 1022 30.18 851 25.13 8.8 47.8 58 1 33.7
09:55 1022 30.18 851 25.13 8.4 47.1 60 1.1 34
10:00 1022 30.18 851 25.13 8.1 46.6 60 0.9 33.7
10:05 1022 30.18 851 25.13 8.4 47 58 0.5 33
10:10 1022 30.18 851 25.13 8.9 47.9 57 0.8 33.5
10:15 1022 30.18 851 25.13 8.8 47.9 58 1.1 33.9
10:20 1022 30.18 851 25.13 8.8 47.9 58 1.1 34
10:25 1022 30.18 851 25.13 8.9 47.9 56 0.7 33.2
10:30 1022 30.18 851 25.13 8.8 47.9 55 0.4 32.7
10:35 1022 30.18 851 25.13 8.8 47.9 56 0.5 33
10:40 1022 30.18 851 25.13 8.9 48 56 0.7 33.3
10:45 1022 30.18 851 25.13 8.8 47.9 56 0.7 33.2
10:50 1022 30.18 851 25.13 9.2 48.6 56 1 33.7
10:55 1022 30.18 851 25.13 9.3 48.7 55 0.6 33.1
11:00 1022 30.18 851 25.13 9.1 48.5 55 0.5 32.9
11:05 1022 30.18 851 25.13 9 48.2 55 0.4 32.7
11:10 1022 30.18 851 25.13 9.1 48.5 56 0.8 33.5
11:15 1022 30.18 851 25.13 9.3 48.7 53 0.3 32.5
11:20 1022 30.18 851 25.13 9.5 49.1 53 0.6 33
11:25 1022 30.18 851 25.13 9.5 49.1 54 0.6 33.1
11:30 1022 30.18 851 25.13 9.6 49.3 52 0.4 32.7
11:35 1022 30.18 851 25.13 9.8 49.6 51 0.2 32.4
11:40 1022 30.18 851 25.13 9.8 49.6 51 0.1 32.2
11:45 1022 30.18 851 25.13 9.8 49.6 48 -0.6 30.9
11:50 1022 30.18 851 25.13 10.3 50.6 47 -0.6 31
11:55 1022 30.18 851 25.13 10.2 50.3 46 -0.8 30.5
12:00 1022 30.18 851 25.13 10.4 50.7 45 -1 30.2
12:05 1021 30.15 851 25.13 10.5 50.9 46 -0.5 31
12:10 1021 30.15 851 25.13 10.4 50.8 46 -0.7 30.7
12:15 1021 30.15 851 25.13 10.5 50.8 47 -0.3 31.4
12:20 1021 30.15 851 25.13 10.8 51.5 48 0.2 32.4
12:25 1021 30.15 851 25.13 10.9 51.5 49 0.7 33.3
12:30 1021 30.15 851 25.13 10.5 50.9 49 0.4 32.6
12:35 1021 30.15 850 25.1 10.6 51.1 50 0.6 33.1
12:40 1021 30.15 850 25.1 10.7 51.2 49 0.4 32.7
12:45 1021 30.15 850 25.1 11.2 52.1 48 0.6 33
12:50 1021 30.15 850 25.1 11.4 52.5 48 0.8 33.5
12:55 1021 30.15 850 25.1 11.2 52.1 49 0.9 33.5
13:00 1021 30.15 850 25.1 11.3 52.3 49 1 33.7
13:05 1021 30.15 850 25.1 11.3 52.4 47 0.6 33
13:10 1021 30.15 850 25.1 11.4 52.5 48 0.9 33.6
13:15 1021 30.15 850 25.1 11.5 52.7 47 0.8 33.4
13:20 1021 30.15 850 25.1 11.4 52.5 47 0.6 33.1
13:25 1021 30.15 850 25.1 11.4 52.5 47 0.6 33.1
13:30 1021 30.15 850 25.1 11.6 52.8 48 0.9 33.6
13:35 1021 30.15 850 25.1 11.8 53.2 46 0.5 32.8
13:40 1021 30.15 850 25.1 11.5 52.7 48 0.8 33.5
13:45 1021 30.15 850 25.1 11.6 52.9 47 0.7 33.3
13:50 1021 30.15 850 25.1 11.8 53.2 46 0.6 33.2
13:55 1021 30.15 850 25.1 11.7 53.1 46 0.5 32.9
14:00 1021 30.15 850 25.1 11.8 53.2 45 0.3 32.6
14:05 1021 30.15 850 25.1 11.9 53.4 45 0.3 32.5
14:10 1021 30.15 850 25.1 12 53.6 45 0.4 32.8
14:15 1021 30.15 850 25.1 12.1 53.8 43 0 32.1
14:20 1021 30.15 850 25.1 12.3 54.2 42 -0.2 31.7
14:25 1021 30.15 850 25.1 12.6 54.6 41 -0.4 31.3
14:30 1020 30.12 850 25.1 12.4 54.4 41 -0.5 31.1
14:35 1020 30.12 850 25.1 12.6 54.6 39 -0.8 30.6
14:40 1020 30.12 850 25.1 12.5 54.5 40 -0.6 31
14:45 1020 30.12 850 25.1 12.2 54 40 -0.8 30.6
14:50 1020 30.12 850 25.1 12.2 53.9 40 -0.8 30.5
14:55 1020 30.12 849 25.07 12.3 54.2 41 -0.6 30.9
15:00 1020 30.12 849 25.07 12.4 54.3 39 -1 30.2
15:05 1020 30.12 849 25.07 12.5 54.6 40 -0.8 30.5
15:10 1020 30.12 849 25.07 12.8 55.1 39 -0.6 31
15:15 1020 30.12 849 25.07 13 55.4 38 -1 30.3
15:20 1020 30.12 849 25.07 12.8 55.1 38 -1 30.3
15:25 1020 30.12 849 25.07 12.6 54.6 39 -1.1 30
15:30 1020 30.12 849 25.07 12.8 55 39 -0.8 30.6
15:35 1020 30.12 849 25.07 12.6 54.7 40 -0.7 30.7
15:40 1020 30.12 849 25.07 12.7 54.8 39 -1 30.3
15:45 1020 30.12 849 25.07 12.9 55.3 38 -1 30.1
15:50 1020 30.12 849 25.07 13 55.4 38 -0.8 30.5
15:55 1020 30.12 849 25.07 13 55.4 38 -0.9 30.4
16:00 1020 30.12 849 25.07 13 55.5 38 -1 30.2
16:05 1020 30.12 849 25.07 13 55.4 38 -1 30.3
16:10 1020 30.12 849 25.07 13.1 55.6 37 -1.2 29.9
16:15 1020 30.12 849 25.07 12.8 55 38 -1.1 30
16:20 1020 30.12 849 25.07 13.1 55.6 37 -1.3 29.7
16:25 1020 30.12 849 25.07 13 55.3 37 -1.4 29.5
16:30 1020 30.12 849 25.07 13.1 55.6 37 -1.2 29.8
16:35 1019 30.09 849 25.07 12.8 55.1 37 -1.4 29.5
16:40 1019 30.09 849 25.07 12.9 55.2 37 -1.4 29.4
16:45 1019 30.09 849 25.07 13.1 55.5 38 -1 30.2
16:50 1019 30.09 849 25.07 13.2 55.7 37 -1.1 30
16:55 1019 30.09 849 25.07 12.7 54.9 38 -1 30.1
17:00 1019 30.09 849 25.07 12.5 54.5 39 -1.1 30.1
17:05 1019 30.09 849 25.07 12.3 54.2 39 -1.3 29.6
17:10 1019 30.09 848 25.04 12.2 53.9 40 -1.1 30
17:15 1019 30.09 849 25.07 12.2 54 39 -1.3 29.7
17:20 1019 30.09 848 25.04 12.2 54 39 -1.3 29.7
17:25 1019 30.09 848 25.04 12.2 54 40 -1.1 30
17:30 1019 30.09 848 25.04 12.4 54.4 39 -1 30.2
17:35 1019 30.09 848 25.04 12.4 54.3 40 -0.9 30.3
17:40 1019 30.09 848 25.04 12.5 54.4 39 -0.9 30.4
17:45 1019 30.09 848 25.04 12.4 54.4 40 -0.7 30.7
17:50 1019 30.09 848 25.04 12.4 54.3 40 -0.7 30.7
17:55 1019 30.09 848 25.04 12.3 54.1 41 -0.7 30.8
18:00 1019 30.09 848 25.04 12.3 54.1 41 -0.5 31.1
18:05 1019 30.09 848 25.04 12.2 54 42 -0.4 31.4
18:10 1019 30.09 848 25.04 12.1 53.8 43 -0.1 31.9
18:15 1019 30.09 848 25.04 12 53.7 43 0 32.1
18:20 1019 30.09 848 25.04 12 53.6 44 0.1 32.2
18:25 1019 30.09 848 25.04 11.9 53.4 44 0.1 32.2
18:30 1019 30.09 848 25.04 11.8 53.2 45 0.2 32.3
18:35 1019 30.09 848 25.04 11.7 53.1 45 0.2 32.3
18:40 1019 30.09 848 25.04 11.5 52.8 45 0.1 32.2
18:45 1019 30.09 848 25.04 11.5 52.7 46 0.2 32.4
18:50 1019 30.09 848 25.04 11.4 52.5 46 0.4 32.7
18:55 1019 30.09 848 25.04 11.3 52.4 47 0.4 32.7
19:00 1019 30.09 848 25.04 11.3 52.3 47 0.4 32.8
19:05 1019 30.09 848 25.04 11.2 52.1 47 0.5 32.8
19:10 1019 30.09 848 25.04 11.1 52 48 0.6 33
19:15 1019 30.09 848 25.04 10.9 51.7 48 0.4 32.8
19:20 1019 30.09 848 25.04 10.8 51.5 49 0.5 32.9
19:25 1019 30.09 848 25.04 10.7 51.3 49 0.5 32.9
19:30 1019 30.09 848 25.04 10.6 51.1 49 0.5 33
19:35 1019 30.09 848 25.04 10.5 50.9 50 0.6 33
19:40 1019 30.09 848 25.04 10.4 50.8 50 0.5 32.9
19:45 1019 30.09 848 25.04 10.4 50.7 51 0.7 33.2
19:50 1019 30.09 848 25.04 10.3 50.5 51 0.7 33.2
19:55 1019 30.09 848 25.04 10.2 50.3 51 0.6 33.2
20:00 1019 30.09 848 25.04 10.2 50.3 52 0.7 33.2
20:05 1019 30.09 848 25.04 10 50 52 0.7 33.3
20:10 1019 30.09 848 25.04 10 49.9 52 0.5 33
20:15 1019 30.09 848 25.04 9.9 49.8 52 0.6 33.1
20:20 1019 30.09 849 25.07 9.8 49.6 53 0.6 33.1
20:25 1019 30.09 849 25.07 9.8 49.6 53 0.6 33.1
20:30 1019 30.09 849 25.07 9.6 49.4 53 0.7 33.2
20:35 1020 30.12 849 25.07 9.6 49.2 54 0.7 33.3
20:40 1020 30.12 849 25.07 9.5 49 54 0.7 33.2
20:45 1020 30.12 849 25.07 9.5 49 54 0.6 33
20:50 1020 30.12 849 25.07 9.5 49.1 54 0.8 33.4
20:55 1020 30.12 849 25.07 9.4 48.8 55 0.8 33.4
21:00 1020 30.12 849 25.07 9.3 48.8 55 0.7 33.2
21:05 1020 30.12 849 25.07 9.5 49 55 0.8 33.4
21:10 1020 30.12 849 25.07 9.5 49.1 54 0.8 33.4
21:15 1020 30.12 849 25.07 9.5 49.1 55 0.8 33.5
21:20 1020 30.12 849 25.07 9.5 49 55 0.9 33.5
21:25 1020 30.12 849 25.07 9.4 48.9 55 0.8 33.4
21:30 1020 30.12 849 25.07 9.3 48.8 55 0.8 33.4
21:35 1020 30.12 849 25.07 9.3 48.8 55 0.7 33.2
21:40 1020 30.12 849 25.07 9.4 48.8 55 0.8 33.4
21:45 1020 30.12 849 25.07 9.3 48.8 55 0.8 33.5
21:50 1020 30.12 849 25.07 9.3 48.8 55 0.8 33.5
21:55 1020 30.12 849 25.07 9.3 48.8 56 0.9 33.6
22:00 1020 30.12 849 25.07 9.3 48.8 56 1 33.8
22:05 1020 30.12 849 25.07 9.3 48.7 56 1.1 34
22:10 1020 30.12 849 25.07 9.2 48.5 57 1.1 34
22:15 1020 30.12 849 25.07 9.1 48.4 58 1.2 34.2
22:20 1020 30.12 849 25.07 9.1 48.3 58 1.2 34.2
22:25 1020 30.12 849 25.07 9 48.3 58 1.3 34.3
22:30 1020 30.12 849 25.07 9 48.1 59 1.4 34.4
22:35 1020 30.12 849 25.07 8.9 48 59 1.4 34.6
22:40 1020 30.12 849 25.07 8.8 47.8 60 1.5 34.6
22:45 1020 30.12 849 25.07 8.7 47.6 60 1.4 34.5
22:50 1020 30.12 849 25.07 8.6 47.5 60 1.4 34.5
22:55 1020 30.12 849 25.07 8.5 47.2 61 1.5 34.7
23:00 1020 30.12 849 25.07 8.3 46.9 62 1.5 34.7
23:05 1020 30.12 849 25.07 8.1 46.6 63 1.4 34.5
23:10 1020 30.12 849 25.07 8 46.4 62 1.2 34.2
23:15 1020 30.12 849 25.07 7.9 46.3 62 1.1 34.1
23:20 1020 30.12 849 25.07 7.8 46.1 62 1 33.8
23:25 1020 30.12 849 25.07 7.7 45.9 62 1 33.7
23:30 1020 30.12 849 25.07 7.6 45.8 62 0.9 33.6
23:35 1020 30.12 849 25.07 7.6 45.6 62 0.8 33.5
23:40 1020 30.12 849 25.07 7.5 45.5 62 0.8 33.4
23:45 1020 30.12 849 25.07 7.4 45.4 63 0.8 33.4
23:50 1020 30.12 849 25.07 7.3 45.2 63 0.7 33.3
23:55 1020 30.12 849 25.07 7.3 45.2 63 0.7 33.2
24:00 1020 30.12 849 25.07 7.2 45 63 0.6 33.1